Time;durP1;ratioP1;P1;durP2;ratioP2;P2;SDS_P1;SDS_P2;PMS_P1;PMS_P2;Temp;Humidity;BMP_temperature;BMP_pressure;BME280_temperature;BME280_humidity;BME280_pressure;Samples;Min_cycle;Max_cycle;Signal;HPM_P1;HPM_P2
2024/03/05 00:00:44;;;;;;;30.00;17.30;;;;;;;3.73;100.00;100290.84;106149;1256;102335;-81
2024/03/05 00:03:41;;;;;;;28.20;18.90;;;;;;;3.74;100.00;100288.80;106577;1259;100595;-81
2024/03/05 00:06:29;;;;;;;29.80;17.90;;;;;;;3.74;100.00;100287.23;106557;1261;97851;-80
2024/03/05 00:09:15;;;;;;;28.30;17.00;;;;;;;3.74;100.00;100283.23;106588;1258;96520;-81
2024/03/05 00:12:00;;;;;;;27.50;16.30;;;;;;;3.71;100.00;100281.52;106859;1259;97885;-81
2024/03/05 00:14:46;;;;;;;25.50;15.70;;;;;;;3.70;100.00;100279.94;106676;1257;102613;-80
2024/03/05 00:17:32;;;;;;;23.10;16.40;;;;;;;3.67;100.00;100274.73;106632;1259;99092;-80
2024/03/05 00:20:20;;;;;;;23.70;15.40;;;;;;;3.66;100.00;100270.02;106587;1260;98705;-81
2024/03/05 00:23:05;;;;;;;22.80;16.30;;;;;;;3.63;100.00;100267.19;106373;1260;97957;-79
2024/03/05 00:25:51;;;;;;;27.50;16.90;;;;;;;3.58;100.00;100266.42;106640;1260;99161;-81
2024/03/05 00:28:37;;;;;;;23.60;15.50;;;;;;;3.56;100.00;100265.07;106493;1260;101454;-82
2024/03/05 00:31:23;;;;;;;23.50;15.00;;;;;;;3.55;100.00;100266.74;106712;1260;100404;-80
2024/03/05 00:34:08;;;;;;;23.70;15.60;;;;;;;3.54;100.00;100270.08;106429;1258;98491;-80
2024/03/05 00:36:53;;;;;;;20.70;14.00;;;;;;;3.50;100.00;100275.67;106572;1260;98830;-80
2024/03/05 00:39:39;;;;;;;25.20;15.10;;;;;;;3.48;100.00;100276.79;106608;1259;98445;-80
2024/03/05 00:42:25;;;;;;;24.50;15.50;;;;;;;3.48;100.00;100276.41;106570;1263;101339;-82
2024/03/05 00:45:12;;;;;;;21.70;14.20;;;;;;;3.48;100.00;100277.83;106333;1261;100425;-80
2024/03/05 00:47:58;;;;;;;18.30;12.80;;;;;;;3.48;100.00;100276.63;105950;1260;98457;-79
2024/03/05 00:50:43;;;;;;;20.90;14.10;;;;;;;3.46;100.00;100276.45;106518;1262;98744;-82
2024/03/05 00:53:29;;;;;;;21.20;13.60;;;;;;;3.46;100.00;100277.67;106490;1260;96208;-80
2024/03/05 00:56:15;;;;;;;20.50;13.60;;;;;;;3.45;100.00;100276.37;106226;1263;103324;-80
2024/03/05 00:59:00;;;;;;;21.80;14.30;;;;;;;3.43;100.00;100274.16;106200;1260;99281;-80
2024/03/05 01:01:46;;;;;;;22.90;14.00;;;;;;;3.40;100.00;100277.02;106431;1258;98997;-80
2024/03/05 01:04:32;;;;;;;21.00;13.00;;;;;;;3.40;100.00;100277.21;106289;1260;97980;-80
2024/03/05 01:07:19;;;;;;;21.80;13.90;;;;;;;3.40;100.00;100275.98;106694;1257;97833;-81
2024/03/05 01:10:05;;;;;;;20.10;13.20;;;;;;;3.43;100.00;100276.25;106578;1260;101418;-80
2024/03/05 01:12:50;;;;;;;21.10;13.80;;;;;;;3.45;100.00;100275.98;106435;1257;99412;-84
2024/03/05 01:15:36;;;;;;;21.50;14.00;;;;;;;3.48;100.00;100273.27;106546;1257;97912;-81
2024/03/05 01:18:22;;;;;;;23.70;14.90;;;;;;;3.48;100.00;100267.97;106469;1259;98697;-81
2024/03/05 01:21:07;;;;;;;22.30;14.60;;;;;;;3.49;100.00;100261.71;106433;1262;98508;-80
2024/03/05 01:23:53;;;;;;;21.30;14.90;;;;;;;3.47;100.00;100257.14;106696;1259;102037;-82
2024/03/05 01:26:39;;;;;;;21.60;14.70;;;;;;;3.47;100.00;100260.81;106572;1257;100199;-83
2024/03/05 01:29:25;;;;;;;25.70;16.00;;;;;;;3.48;100.00;100259.66;106474;1260;99063;-81
2024/03/05 01:32:12;;;;;;;25.40;16.40;;;;;;;3.47;100.00;100264.48;106622;1259;97773;-81
2024/03/05 01:34:58;;;;;;;21.90;14.70;;;;;;;3.46;100.00;100267.39;106580;1262;97897;-81
2024/03/05 01:37:44;;;;;;;23.20;14.40;;;;;;;3.44;100.00;100269.27;106254;1260;101326;-81
2024/03/05 01:40:29;;;;;;;25.90;15.50;;;;;;;3.44;100.00;100275.28;106403;1263;108952;-80
2024/03/05 01:43:14;;;;;;;22.90;14.70;;;;;;;3.42;100.00;100277.00;106318;1258;99638;-80
2024/03/05 01:46:00;;;;;;;23.70;14.80;;;;;;;3.41;100.00;100278.23;106533;1260;97989;-81
2024/03/05 01:48:46;;;;;;;23.40;15.50;;;;;;;3.41;100.00;100274.80;106734;1257;97851;-81
2024/03/05 01:51:32;;;;;;;24.70;14.30;;;;;;;3.39;100.00;100276.23;106425;1259;101414;-81
2024/03/05 01:54:18;;;;;;;25.40;15.40;;;;;;;3.37;100.00;100276.27;106257;1259;99815;-78
2024/03/05 01:57:04;;;;;;;21.20;14.70;;;;;;;3.37;100.00;100278.94;106569;1260;97922;-81
2024/03/05 01:59:50;;;;;;;25.00;14.50;;;;;;;3.37;100.00;100280.39;106416;1259;97979;-82
2024/03/05 02:02:36;;;;;;;23.60;15.40;;;;;;;3.37;100.00;100281.94;106327;1260;97141;-81
2024/03/05 02:05:23;;;;;;;24.20;16.50;;;;;;;3.36;100.00;100283.07;106458;1258;102657;-80
2024/03/05 02:08:08;;;;;;;21.40;14.40;;;;;;;3.35;100.00;100281.09;106569;1259;100494;-79
2024/03/05 02:10:54;;;;;;;24.00;15.90;;;;;;;3.35;100.00;100281.43;106454;1259;97980;-80
2024/03/05 02:13:43;;;;;;;21.90;14.30;;;;;;;3.36;100.00;100279.52;106581;1259;97973;-81
2024/03/05 02:16:28;;;;;;;23.00;15.00;;;;;;;3.35;100.00;100275.38;106325;1259;97949;-82
2024/03/05 02:19:14;;;;;;;24.00;15.50;;;;;;;3.32;100.00;100275.88;106503;1262;101351;-81
2024/03/05 02:22:06;;;;;;;22.70;14.50;;;;;;;3.30;100.00;100276.64;106372;1265;99351;-81
2024/03/05 02:24:51;;;;;;;24.20;15.50;;;;;;;3.29;100.00;100280.11;106661;1260;98318;-82
2024/03/05 02:27:38;;;;;;;22.80;15.10;;;;;;;3.26;100.00;100282.66;106397;1258;97848;-80
2024/03/05 02:30:24;;;;;;;20.60;13.90;;;;;;;3.26;100.00;100283.87;106521;1259;99017;-80
2024/03/05 02:33:13;;;;;;;23.40;15.50;;;;;;;3.26;100.00;100284.23;105931;1260;101482;-81
2024/03/05 02:35:58;;;;;;;22.50;15.00;;;;;;;3.24;100.00;100283.54;106084;1259;100424;-79
2024/03/05 02:38:44;;;;;;;21.40;14.50;;;;;;;3.21;100.00;100283.69;106295;1264;98996;-80
2024/03/05 02:41:30;;;;;;;21.80;13.60;;;;;;;3.20;100.00;100281.64;106390;1259;98736;-80
2024/03/05 02:44:16;;;;;;;22.00;14.70;;;;;;;3.20;100.00;100278.27;106496;1260;97842;-81
2024/03/05 02:47:02;;;;;;;24.40;14.90;;;;;;;3.21;100.00;100277.35;106418;1259;101772;-80
2024/03/05 02:49:49;;;;;;;25.60;15.50;;;;;;;3.19;100.00;100278.95;106509;1259;99083;-82
2024/03/05 02:52:36;;;;;;;21.20;14.00;;;;;;;3.17;100.00;100279.65;106398;1263;99084;-80
2024/03/05 02:55:22;;;;;;;20.50;14.10;;;;;;;3.16;100.00;100281.01;106427;1263;97948;-81
2024/03/05 02:58:10;;;;;;;22.70;14.60;;;;;;;3.14;100.00;100281.87;106482;1259;97982;-80
2024/03/05 03:00:56;;;;;;;24.30;15.70;;;;;;;3.11;100.00;100279.15;106569;1259;101347;-81
2024/03/05 03:03:42;;;;;;;24.90;15.90;;;;;;;3.10;100.00;100280.98;106388;1259;99287;-80
2024/03/05 03:06:28;;;;;;;26.40;15.90;;;;;;;3.12;100.00;100280.69;106101;1259;97894;-81
2024/03/05 03:09:14;;;;;;;26.00;16.20;;;;;;;3.12;100.00;100278.69;105957;1259;99117;-80
2024/03/05 03:11:59;;;;;;;25.00;16.60;;;;;;;3.10;100.00;100274.98;105987;1260;96013;-80
2024/03/05 03:14:46;;;;;;;28.30;18.70;;;;;;;3.09;100.00;100271.59;105905;1262;102666;-79
2024/03/05 03:17:32;;;;;;;27.60;16.20;;;;;;;3.07;100.00;100276.16;105929;1259;100349;-81
2024/03/05 03:20:18;;;;;;;22.00;14.80;;;;;;;3.06;100.00;100278.95;105957;1259;97893;-81
2024/03/05 03:23:04;;;;;;;27.30;16.90;;;;;;;3.05;100.00;100277.59;105706;1259;98764;-80
2024/03/05 03:25:50;;;;;;;25.20;17.10;;;;;;;3.04;100.00;100276.16;106391;1263;97830;-80
2024/03/05 03:28:35;;;;;;;27.00;17.40;;;;;;;3.05;100.00;100271.98;106024;1262;101394;-81
2024/03/05 03:31:22;;;;;;;29.90;16.10;;;;;;;3.04;100.00;100272.05;106064;1260;99102;-81
2024/03/05 03:34:07;;;;;;;23.10;15.30;;;;;;;3.03;100.00;100273.91;106282;1262;98993;-81
2024/03/05 03:36:53;;;;;;;23.60;15.30;;;;;;;3.01;100.00;100274.84;106132;1264;98026;-80
2024/03/05 03:39:43;;;;;;;22.50;14.10;;;;;;;3.00;100.00;100273.88;106264;1263;97790;-81
2024/03/05 03:42:29;;;;;;;23.60;15.50;;;;;;;3.00;100.00;100273.00;106276;1259;102681;-81
2024/03/05 03:45:16;;;;;;;25.30;14.60;;;;;;;3.00;100.00;100271.45;106409;1259;99673;-82
2024/03/05 03:48:02;;;;;;;22.60;15.10;;;;;;;3.00;100.00;100278.62;106341;1263;97882;-81
2024/03/05 03:50:48;;;;;;;25.00;15.90;;;;;;;3.00;100.00;100281.08;106229;1259;97995;-81
2024/03/05 03:53:36;;;;;;;22.20;14.90;;;;;;;3.00;100.00;100282.86;106286;1260;96431;-78
2024/03/05 03:56:22;;;;;;;25.90;14.30;;;;;;;2.99;100.00;100281.86;106437;1264;101474;-82
2024/03/05 03:59:07;;;;;;;22.10;14.90;;;;;;;3.00;100.00;100284.67;106364;1259;99245;-81
2024/03/05 04:01:54;;;;;;;27.80;16.40;;;;;;;3.00;100.00;100288.64;106300;1259;99161;-82
2024/03/05 04:04:40;;;;;;;21.40;13.70;;;;;;;3.01;100.00;100285.92;106319;1258;98063;-82
2024/03/05 04:07:26;;;;;;;23.30;13.60;;;;;;;3.01;100.00;100285.42;106506;1259;96949;-80
2024/03/05 04:10:12;;;;;;;23.70;15.10;;;;;;;3.00;100.00;100281.97;106248;1261;102784;-81
2024/03/05 04:12:58;;;;;;;20.70;13.40;;;;;;;3.02;100.00;100279.34;106362;1259;99880;-81
2024/03/05 04:15:44;;;;;;;24.90;14.80;;;;;;;3.04;100.00;100277.39;106393;1262;99075;-80
2024/03/05 04:18:30;;;;;;;23.10;14.70;;;;;;;3.03;100.00;100277.98;106412;1263;98060;-81
2024/03/05 04:21:16;;;;;;;22.80;14.00;;;;;;;3.02;100.00;100278.46;106196;1262;98492;-79
2024/03/05 04:24:02;;;;;;;24.60;15.20;;;;;;;3.00;100.00;100280.38;106154;1260;101439;-82
2024/03/05 04:26:50;;;;;;;21.80;14.70;;;;;;;3.01;100.00;100279.95;106156;1259;99179;-82
2024/03/05 04:29:37;;;;;;;23.80;14.80;;;;;;;3.01;100.00;100280.33;106285;1263;97970;-81
2024/03/05 04:32:27;;;;;;;22.00;14.70;;;;;;;3.00;100.00;100283.95;106110;1259;98008;-81
2024/03/05 04:35:13;;;;;;;21.80;14.10;;;;;;;3.00;100.00;100287.15;106218;1264;98381;-80
2024/03/05 04:37:58;;;;;;;21.00;13.10;;;;;;;3.01;100.00;100288.78;106041;1260;101393;-81
2024/03/05 04:40:44;;;;;;;21.10;13.80;;;;;;;3.01;100.00;100288.08;106503;1259;99084;-81
2024/03/05 04:43:29;;;;;;;21.30;12.60;;;;;;;3.01;100.00;100287.39;106174;1260;98814;-80
2024/03/05 04:46:15;;;;;;;22.50;14.30;;;;;;;3.02;100.00;100292.22;106169;1259;98044;-80
2024/03/05 04:49:00;;;;;;;19.20;12.30;;;;;;;3.06;100.00;100294.66;106289;1259;98077;-80
2024/03/05 04:51:46;;;;;;;20.00;13.40;;;;;;;3.08;100.00;100297.24;106458;1263;101453;-80
2024/03/05 04:54:34;;;;;;;19.80;12.20;;;;;;;3.10;100.00;100296.16;106189;1259;100377;-80
2024/03/05 04:57:20;;;;;;;17.90;12.40;;;;;;;3.11;100.00;100295.40;106182;1259;97893;-81
2024/03/05 05:00:19;;;;;;;20.30;12.60;;;;;;;3.12;100.00;100298.09;106201;1259;98057;-81
2024/03/05 05:03:06;;;;;;;19.20;11.60;;;;;;;3.13;100.00;100298.00;106449;1264;97951;-81
2024/03/05 05:05:53;;;;;;;19.40;11.90;;;;;;;3.14;100.00;100297.02;107074;1259;101381;-82
2024/03/05 05:08:39;;;;;;;21.40;13.40;;;;;;;3.16;100.00;100296.58;106327;1264;100978;-81
2024/03/05 05:11:24;;;;;;;18.60;12.00;;;;;;;3.18;100.00;100299.38;106220;1259;98029;-81
2024/03/05 05:14:11;;;;;;;19.30;12.00;;;;;;;3.19;100.00;100301.05;106246;1259;97962;-81
2024/03/05 05:16:56;;;;;;;20.40;13.10;;;;;;;3.17;100.00;100301.36;106215;1262;97968;-80
2024/03/05 05:19:42;;;;;;;17.90;10.20;;;;;;;3.16;100.00;100300.09;106479;1263;102322;-82
2024/03/05 05:22:28;;;;;;;17.70;11.60;;;;;;;3.13;100.00;100302.23;106310;1259;100406;-81
2024/03/05 05:25:16;;;;;;;19.40;11.90;;;;;;;3.12;100.00;100304.81;106365;1264;98020;-79
2024/03/05 05:28:03;;;;;;;18.50;12.30;;;;;;;3.11;100.00;100302.98;105780;1259;98055;-81
2024/03/05 05:30:50;;;;;;;19.30;11.40;;;;;;;3.09;100.00;100305.10;107638;1259;98412;-80
2024/03/05 05:33:35;;;;;;;19.60;11.30;;;;;;;3.08;100.00;100299.58;106465;1259;101453;-81
2024/03/05 05:36:21;;;;;;;22.70;11.70;;;;;;;3.04;100.00;100300.95;106312;1259;99212;-81
2024/03/05 05:39:06;;;;;;;17.50;11.40;;;;;;;3.02;100.00;100305.09;106343;1259;99485;-81
2024/03/05 05:41:53;;;;;;;16.00;11.30;;;;;;;3.02;100.00;100308.25;106183;1259;97983;-80
2024/03/05 05:44:40;;;;;;;18.00;12.30;;;;;;;3.04;100.00;100312.11;106325;1263;99662;-81
2024/03/05 05:47:26;;;;;;;19.40;12.20;;;;;;;3.02;100.00;100314.46;106235;1260;101510;-81
2024/03/05 05:50:18;;;;;;;19.00;12.80;;;;;;;2.99;100.00;100318.00;106375;1259;99132;-79
2024/03/05 05:53:07;;;;;;;20.40;12.50;;;;;;;3.00;100.00;100323.58;106050;1259;99393;-81
2024/03/05 05:55:53;;;;;;;20.00;12.00;;;;;;;3.03;100.00;100324.90;106459;1260;97976;-81
2024/03/05 05:58:39;;;;;;;18.80;12.10;;;;;;;3.06;100.00;100324.27;106309;1259;96802;-81
2024/03/05 06:01:25;;;;;;;18.80;12.00;;;;;;;3.09;100.00;100326.44;106481;1263;102330;-81
2024/03/05 06:04:11;;;;;;;20.10;11.90;;;;;;;3.12;100.00;100326.14;106361;1259;100277;-81
2024/03/05 06:06:56;;;;;;;18.70;11.50;;;;;;;3.15;100.00;100328.16;106439;1259;98976;-81
2024/03/05 06:09:42;;;;;;;19.00;12.00;;;;;;;3.16;100.00;100329.30;106281;1265;97338;-80
2024/03/05 06:12:28;;;;;;;21.40;12.00;;;;;;;3.17;100.00;100331.02;106355;1262;99752;-80
2024/03/05 06:15:17;;;;;;;20.00;12.00;;;;;;;3.17;100.00;100333.48;106477;1259;102698;-80
2024/03/05 06:18:03;;;;;;;19.10;11.80;;;;;;;3.18;100.00;100329.66;106212;1260;100345;-81
2024/03/05 06:20:49;;;;;;;19.20;11.80;;;;;;;3.18;100.00;100326.88;106396;1259;97989;-81
2024/03/05 06:23:37;;;;;;;20.60;11.30;;;;;;;3.17;100.00;100332.91;106444;1259;97952;-81
2024/03/05 06:26:23;;;;;;;19.60;12.70;;;;;;;3.17;100.00;100342.11;106341;1259;97878;-81
2024/03/05 06:29:09;;;;;;;20.90;12.40;;;;;;;3.20;100.00;100342.89;106368;1264;101595;-81
2024/03/05 06:31:55;;;;;;;19.00;11.60;;;;;;;3.22;100.00;100349.06;106400;1259;100090;-80
2024/03/05 06:34:42;;;;;;;19.20;12.00;;;;;;;3.24;100.00;100355.88;106207;1259;97973;-80
2024/03/05 06:37:28;;;;;;;19.00;10.90;;;;;;;3.26;100.00;100357.10;106419;1259;97958;-82
2024/03/05 06:40:19;;;;;;;18.10;11.60;;;;;;;3.27;100.00;100352.84;106499;1259;97900;-78
2024/03/05 06:43:20;;;;;;;21.80;13.20;;;;;;;3.29;100.00;100356.00;106839;1259;102595;-83
2024/03/05 06:46:09;;;;;;;21.20;12.10;;;;;;;3.33;100.00;100358.95;106203;1259;99767;-80
2024/03/05 06:49:00;;;;;;;20.60;13.10;;;;;;;3.34;100.00;100358.61;106384;1259;97988;-82
2024/03/05 06:51:53;;;;;;;19.90;11.20;;;;;;;3.35;100.00;100367.34;106255;1260;97973;-82
2024/03/05 06:57:46;;;;;;;19.50;12.30;;;;;;;3.41;100.00;100367.66;106331;1259;101417;-79
2024/03/05 07:00:32;;;;;;;19.70;11.90;;;;;;;3.42;100.00;100360.52;106024;1263;99204;-79
2024/03/05 07:03:22;;;;;;;18.60;11.60;;;;;;;3.39;100.00;100354.27;105953;1264;99320;-81
2024/03/05 07:06:12;;;;;;;17.20;11.50;;;;;;;3.36;100.00;100355.69;105976;1265;97956;-79
2024/03/05 07:08:59;;;;;;;19.60;11.50;;;;;;;3.33;100.00;100359.66;105907;1259;97910;-80
2024/03/05 07:11:45;;;;;;;18.50;11.60;;;;;;;3.34;100.00;100363.27;105894;1262;103198;-78
2024/03/05 07:14:32;;;;;;;17.90;11.90;;;;;;;3.34;100.00;100363.89;105924;1259;99811;-80
2024/03/05 07:17:20;;;;;;;21.90;12.30;;;;;;;3.34;100.00;100369.06;105821;1259;97893;-81
2024/03/05 07:20:15;;;;;;;22.00;13.10;;;;;;;3.32;100.00;100376.13;105863;1260;97942;-80
2024/03/05 07:23:01;;;;;;;22.30;12.40;;;;;;;3.32;100.00;100383.35;106462;1259;97988;-82
2024/03/05 07:25:47;;;;;;;21.80;13.60;;;;;;;3.35;100.00;100393.66;106198;1259;101427;-80
2024/03/05 07:28:33;;;;;;;23.80;13.60;;;;;;;3.38;100.00;100399.03;106474;1259;100394;-81
2024/03/05 07:31:19;;;;;;;20.40;12.50;;;;;;;3.42;100.00;100400.42;106318;1259;97873;-80
2024/03/05 07:34:05;;;;;;;20.30;13.30;;;;;;;3.44;100.00;100391.96;106257;1259;97860;-80
2024/03/05 07:36:51;;;;;;;20.60;13.20;;;;;;;3.45;100.00;100392.85;106467;1261;96473;-82
2024/03/05 07:39:36;;;;;;;25.90;13.20;;;;;;;3.47;100.00;100392.11;106456;1259;102831;-88
2024/03/05 07:42:23;;;;;;;20.30;12.80;;;;;;;3.48;100.00;100395.36;106247;1263;100485;-85
2024/03/05 07:45:09;;;;;;;23.30;12.50;;;;;;;3.48;100.00;100395.78;106084;1262;98376;-80
2024/03/05 07:47:54;;;;;;;20.00;12.20;;;;;;;3.49;100.00;100400.42;106097;1260;98720;-80
2024/03/05 07:50:42;;;;;;;24.50;13.60;;;;;;;3.49;100.00;100398.48;106201;1260;98038;-81
2024/03/05 07:53:27;;;;;;;25.80;12.90;;;;;;;3.48;100.00;100398.04;106420;1264;101443;-82
2024/03/05 07:56:13;;;;;;;21.10;12.80;;;;;;;3.48;100.00;100395.56;106088;1259;100331;-79
2024/03/05 07:58:59;;;;;;;21.50;12.90;;;;;;;3.49;100.00;100398.54;106057;1259;97949;-82
2024/03/05 08:01:45;;;;;;;24.70;12.40;;;;;;;3.47;100.00;100398.65;106272;1259;97963;-81
2024/03/05 08:04:31;;;;;;;23.70;13.60;;;;;;;3.46;100.00;100402.27;106248;1259;97896;-82
2024/03/05 08:07:16;;;;;;;26.30;12.80;;;;;;;3.44;100.00;100401.60;106041;1259;101528;-79
2024/03/05 08:10:03;;;;;;;22.40;12.80;;;;;;;3.44;100.00;100400.05;106312;1260;100458;-82
2024/03/05 08:12:53;;;;;;;25.50;14.00;;;;;;;3.44;100.00;100397.59;106268;1263;97959;-82
2024/03/05 08:15:38;;;;;;;26.40;13.50;;;;;;;3.41;100.00;100397.30;106445;1259;96245;-80
2024/03/05 08:18:24;;;;;;;27.70;14.60;;;;;;;3.39;100.00;100395.94;106256;1260;98613;-81
2024/03/05 08:21:09;;;;;;;22.50;13.00;;;;;;;3.38;100.00;100392.87;105987;1262;102579;-80
2024/03/05 08:23:55;;;;;;;22.50;14.30;;;;;;;3.38;100.00;100394.59;105997;1259;100310;-82
2024/03/05 08:26:41;;;;;;;27.40;14.90;;;;;;;3.43;100.00;100399.27;105846;1259;98051;-80
2024/03/05 08:29:26;;;;;;;29.90;15.00;;;;;;;3.46;100.00;100402.34;105770;1260;97973;-81
2024/03/05 08:32:12;;;;;;;27.50;14.60;;;;;;;3.48;100.00;100408.13;105960;1259;98671;-80
2024/03/05 08:34:57;;;;;;;32.80;16.40;;;;;;;3.52;100.00;100409.88;105987;1265;102595;-81
2024/03/05 08:37:47;;;;;;;26.80;14.80;;;;;;;3.59;100.00;100411.15;105919;1259;99830;-81
2024/03/05 08:40:35;;;;;;;31.00;15.70;;;;;;;3.65;100.00;100414.41;105965;1259;98933;-80
2024/03/05 08:43:21;;;;;;;30.70;15.50;;;;;;;3.71;100.00;100414.55;105918;1259;97861;-81
2024/03/05 08:46:08;;;;;;;31.10;16.20;;;;;;;3.76;100.00;100416.48;106062;1259;97933;-81
2024/03/05 08:48:53;;;;;;;32.50;17.80;;;;;;;3.80;100.00;100418.20;106066;1265;101364;-81
2024/03/05 08:51:39;;;;;;;30.20;16.80;;;;;;;3.84;100.00;100424.56;106066;1258;100085;-80
2024/03/05 08:54:25;;;;;;;32.20;17.10;;;;;;;3.88;100.00;100429.98;106115;1260;98869;-80
2024/03/05 08:57:11;;;;;;;32.90;17.60;;;;;;;3.91;100.00;100431.30;105885;1260;97993;-81
2024/03/05 09:00:01;;;;;;;29.90;15.40;;;;;;;3.93;100.00;100430.89;106148;1259;97789;-81
2024/03/05 09:02:47;;;;;;;27.00;15.60;;;;;;;3.95;100.00;100429.86;107012;1262;102676;-80
2024/03/05 09:05:33;;;;;;;31.40;16.60;;;;;;;3.94;100.00;100434.52;105838;1260;99203;-81
2024/03/05 09:08:18;;;;;;;33.00;17.20;;;;;;;3.95;100.00;100436.24;106174;1260;98898;-81
2024/03/05 09:11:05;;;;;;;32.70;16.70;;;;;;;3.92;100.00;100440.33;106164;1259;96496;-82
2024/03/05 09:13:51;;;;;;;30.50;16.20;;;;;;;3.92;100.00;100442.14;106218;1257;98673;-80
2024/03/05 09:16:39;;;;;;;35.20;18.50;;;;;;;3.92;100.00;100446.79;106314;1265;111863;-84
2024/03/05 09:19:25;;;;;;;40.40;19.10;;;;;;;3.90;100.00;100448.98;105986;1263;99083;-82
2024/03/05 09:22:10;;;;;;;36.70;18.10;;;;;;;3.89;100.00;100450.36;106025;1260;98056;-81
2024/03/05 09:24:56;;;;;;;35.50;16.90;;;;;;;3.89;100.00;100452.89;106173;1257;97999;-82
2024/03/05 09:27:44;;;;;;;36.10;18.10;;;;;;;3.89;100.00;100449.84;105928;1261;99162;-80
2024/03/05 09:30:32;;;;;;;39.80;19.30;;;;;;;3.91;100.00;100448.27;106158;1262;101555;-82
2024/03/05 09:33:17;;;;;;;36.50;18.70;;;;;;;3.93;100.00;100449.29;105973;1260;99209;-82
2024/03/05 09:36:06;;;;;;;35.50;16.60;;;;;;;3.95;100.00;100449.81;105884;1262;99174;-82
2024/03/05 09:38:52;;;;;;;37.60;19.30;;;;;;;3.99;100.00;100454.38;106240;1259;97967;-82
2024/03/05 09:41:43;;;;;;;49.60;19.80;;;;;;;4.04;100.00;100457.20;106173;1265;97981;-82
2024/03/05 09:44:29;;;;;;;38.30;20.20;;;;;;;4.08;100.00;100459.70;106071;1260;101432;-81
2024/03/05 09:47:20;;;;;;;35.80;19.00;;;;;;;4.11;100.00;100460.98;106183;1263;99178;-81
2024/03/05 09:50:08;;;;;;;40.10;18.30;;;;;;;4.16;100.00;100465.74;106039;1258;99069;-81
2024/03/05 09:52:59;;;;;;;41.30;20.20;;;;;;;4.21;100.00;100464.44;106076;1259;98113;-81
2024/03/05 09:55:51;;;;;;;45.00;19.20;;;;;;;4.24;100.00;100466.95;105953;1260;98481;-80
2024/03/05 09:58:39;;;;;;;40.10;20.70;;;;;;;4.27;100.00;100469.33;106332;1260;110732;-84
2024/03/05 10:01:24;;;;;;;42.60;21.30;;;;;;;4.28;100.00;100465.09;106120;1265;99093;-83
2024/03/05 10:04:12;;;;;;;35.50;17.60;;;;;;;4.32;100.00;100464.92;106578;1263;98400;-88
2024/03/05 10:06:58;;;;;;;45.80;21.20;;;;;;;4.34;100.00;100465.54;106425;1259;97936;-87
2024/03/05 10:09:45;;;;;;;40.30;21.50;;;;;;;4.37;100.00;100471.81;106319;1260;98044;-87
2024/03/05 10:12:34;;;;;;;39.80;20.20;;;;;;;4.42;100.00;100476.30;106325;1260;101423;-86
2024/03/05 10:15:24;;;;;;;42.60;20.30;;;;;;;4.46;100.00;100475.38;106147;1259;99318;-86
2024/03/05 10:18:11;;;;;;;42.90;21.80;;;;;;;4.48;100.00;100477.23;106258;1259;97984;-86
2024/03/05 10:21:15;;;;;;;44.80;21.80;;;;;;;4.52;100.00;100480.40;106116;1265;98038;-85
2024/03/05 10:24:05;;;;;;;39.80;20.30;;;;;;;4.56;100.00;100485.42;106117;1259;98089;-84
2024/03/05 10:26:52;;;;;;;44.50;21.90;;;;;;;4.61;100.00;100490.64;106101;1260;101421;-86
2024/03/05 10:29:38;;;;;;;42.50;20.50;;;;;;;4.65;100.00;100493.77;105956;1259;99164;-85
2024/03/05 10:32:25;;;;;;;42.40;23.10;;;;;;;4.68;100.00;100494.69;106096;1260;97996;-85
2024/03/05 10:35:14;;;;;;;49.60;22.70;;;;;;;4.72;100.00;100493.30;106271;1259;97907;-85
2024/03/05 10:38:09;;;;;;;46.00;23.50;;;;;;;4.75;100.00;100489.69;106240;1260;99655;-84
2024/03/05 10:40:56;;;;;;;48.10;24.00;;;;;;;4.76;100.00;100487.60;106223;1259;101442;-87
2024/03/05 10:43:42;;;;;;;41.90;23.10;;;;;;;4.77;100.00;100488.73;106207;1260;99277;-87
2024/03/05 10:46:29;;;;;;;47.20;23.60;;;;;;;4.78;100.00;100491.66;106186;1259;97959;-86
2024/03/05 10:49:17;;;;;;;43.50;22.90;;;;;;;4.78;100.00;100489.12;106280;1260;97887;-86
2024/03/05 10:52:04;;;;;;;48.60;24.60;;;;;;;4.79;100.00;100486.56;106381;1259;98508;-84
2024/03/05 10:54:53;;;;;;;40.60;22.10;;;;;;;4.81;100.00;100489.54;106346;1260;101257;-85
2024/03/05 10:58:13;;;;;;;43.80;22.90;;;;;;;4.83;100.00;100492.19;106271;1259;99203;-86
2024/03/05 11:00:46;;;;;;;47.50;24.10;;;;;;;4.86;100.00;100493.63;106666;1260;98475;-88
2024/03/05 11:03:39;;;;;;;43.80;24.00;;;;;;;4.90;100.00;100494.31;106561;1260;97896;-88
2024/03/05 11:06:25;;;;;;;49.90;25.00;;;;;;;4.92;100.00;100492.82;106120;1259;98077;-85
2024/03/05 11:09:15;;;;;;;49.70;25.70;;;;;;;4.94;100.00;100494.80;106076;1264;101450;-86
2024/03/05 11:12:06;;;;;;;44.90;25.20;;;;;;;4.95;100.00;100496.27;106335;1259;100834;-83
2024/03/05 11:14:52;;;;;;;50.20;26.40;;;;;;;4.96;100.00;100499.65;106179;1259;97914;-83
2024/03/05 11:17:40;;;;;;;45.30;24.40;;;;;;;4.98;100.00;100499.08;106141;1260;97973;-83
2024/03/05 11:20:47;;;;;;;45.90;24.50;;;;;;;5.01;100.00;100500.80;107500;1259;98370;-85
2024/03/05 11:23:40;;;;;;;45.80;25.50;;;;;;;5.02;100.00;100505.98;106241;1263;102211;-78
2024/03/05 11:26:28;;;;;;;53.70;27.70;;;;;;;5.05;100.00;100507.29;105384;1265;99126;-79
2024/03/05 11:29:20;;;;;;;49.40;27.10;;;;;;;5.08;100.00;100510.27;105537;1264;98053;-87
2024/03/05 11:32:10;;;;;;;49.90;26.90;;;;;;;5.11;100.00;100512.12;106412;1259;97990;-84
2024/03/05 11:34:55;;;;;;;50.00;26.50;;;;;;;5.14;100.00;100512.71;106480;1265;97835;-80
2024/03/05 11:37:47;;;;;;;55.90;29.80;;;;;;;5.18;100.00;100511.08;106379;1259;102450;-80
2024/03/05 11:40:35;;;;;;;49.80;30.30;;;;;;;5.21;100.00;100506.81;106253;1265;99169;-83
2024/03/05 11:43:37;;;;;;;56.00;30.20;;;;;;;5.25;100.00;100511.05;106333;1259;98995;-84
2024/03/05 11:46:38;;;;;;;57.20;31.60;;;;;;;5.27;100.00;100511.52;106288;1265;98063;-84
2024/03/05 11:49:24;;;;;;;56.80;32.80;;;;;;;5.31;100.00;100515.23;106064;1259;97772;-82
2024/03/05 11:52:10;;;;;;;52.40;30.40;;;;;;;5.34;100.00;100518.08;106247;1260;101424;-82
2024/03/05 11:54:58;;;;;;;50.40;28.80;;;;;;;5.35;100.00;100514.92;106144;1263;99160;-82
2024/03/05 11:57:55;;;;;;;52.80;28.90;;;;;;;5.37;100.00;100520.45;106419;1262;97937;-82
2024/03/05 12:00:41;;;;;;;54.10;29.30;;;;;;;5.37;100.00;100524.11;106524;1262;97876;-83
2024/03/05 12:03:28;;;;;;;49.20;28.50;;;;;;;5.39;100.00;100527.27;106593;1260;97902;-82
2024/03/05 12:06:17;;;;;;;52.10;28.60;;;;;;;5.41;100.00;100530.61;106896;1260;101360;-82
2024/03/05 12:09:20;;;;;;;52.20;29.00;;;;;;;5.43;100.00;100532.55;107337;1260;99126;-81
2024/03/05 12:12:13;;;;;;;53.30;29.00;;;;;;;5.46;100.00;100533.27;106585;1263;98374;-81
2024/03/05 12:15:00;;;;;;;57.30;31.50;;;;;;;5.47;100.00;100527.99;106778;1265;97946;-80
2024/03/05 12:17:46;;;;;;;63.10;34.50;;;;;;;5.51;100.00;100533.16;106602;1263;96214;-80
2024/03/05 12:20:32;;;;;;;57.40;31.40;;;;;;;5.55;100.00;100533.30;106265;1260;102623;-80
2024/03/05 12:23:18;;;;;;;56.20;30.70;;;;;;;5.59;100.00;100536.27;106890;1260;99162;-79
2024/03/05 12:26:03;;;;;;;51.70;29.10;;;;;;;5.61;100.00;100535.03;106090;1264;99059;-78
2024/03/05 12:28:49;;;;;;;51.10;29.90;;;;;;;5.61;100.00;100537.58;106299;1263;97931;-80
2024/03/05 12:31:36;;;;;;;48.40;28.30;;;;;;;5.62;100.00;100542.67;106381;1261;98406;-80